KCC weather

Public forecast

Using degrees Fahrenheit for public forecast. Weather courtesy of forecast.io.

Closest aviation weather report (METAR) to Coffman Cove Seaplane Base

Closest report is Klawock Airport, 26.7 nm (49.4 km) SSW. Retrieved 2020/08/14 02:17 UTC (0 seconds ago):

PAKW 140217Z AUTO 18003KT 3SM -RA BR BKN008 BKN028 OVC044 13/12 A3004 RMK AO2 RAB08 P0000 T01330117 TSNO

Closest aviation forecast (TAF) to Coffman Cove Seaplane Base

Closest forecast is Klawock Airport, 26.7 nm (49.4 km) SSW. Retrieved 2020-08-14 00:40 UTC (2 hours ago):

TAF PAKW 132337Z 1400/1424 VRB05KT P6SM -SHRA SCT025 OVC035 FM141000 05004KT 5SM -RA SCT007 OVC015 FM141400 09007KT 3SM -RA BKN007 OVC015 AMD LTD TO CLD VIS AND WIND